Time;durP1;ratioP1;P1;durP2;ratioP2;P2;SDS_P1;SDS_P2;PMS_P1;PMS_P2;Temp;Humidity;BMP_temperature;BMP_pressure;BME280_temperature;BME280_humidity;BME280_pressure;Samples;Min_cycle;Max_cycle;Signal;HPM_P1;HPM_P2
2021/11/25 00:02:12;;;;;;;1.10;0.60;;;-0.50;99.90;;;;;;4993874;28;20482;-70
2021/11/25 00:04:38;;;;;;;0.40;0.20;;;-0.50;99.90;;;;;;4976540;28;20433;-70
2021/11/25 00:07:04;;;;;;;0.40;0.20;;;-0.50;99.90;;;;;;4980595;28;20426;-70
2021/11/25 00:09:30;;;;;;;0.40;0.20;;;-0.50;99.90;;;;;;4974510;28;20786;-70
2021/11/25 00:11:55;;;;;;;0.40;0.40;;;-0.50;99.90;;;;;;4975633;28;20842;-70
2021/11/25 00:14:21;;;;;;;0.40;0.20;;;-0.60;99.90;;;;;;4975000;28;20470;-70
2021/11/25 00:16:47;;;;;;;0.40;0.20;;;-0.60;99.90;;;;;;4974775;28;20392;-70
2021/11/25 00:19:13;;;;;;;0.40;0.20;;;-0.60;99.90;;;;;;4975166;28;20394;-70
2021/11/25 00:21:39;;;;;;;0.40;0.20;;;-0.80;99.90;;;;;;4974255;28;21317;-70
2021/11/25 00:24:06;;;;;;;0.40;0.20;;;-0.80;99.90;;;;;;4941580;28;20399;-70
2021/11/25 00:26:33;;;;;;;0.40;0.20;;;-0.90;99.90;;;;;;4974280;28;20448;-71
2021/11/25 00:29:00;;;;;;;0.40;0.20;;;-0.90;99.90;;;;;;4974822;28;20888;-70
2021/11/25 00:31:26;;;;;;;0.40;0.20;;;-1.10;99.90;;;;;;4975050;28;20436;-70
2021/11/25 00:33:51;;;;;;;0.40;0.30;;;-1.00;99.90;;;;;;4974024;28;20885;-70
2021/11/25 00:36:17;;;;;;;0.50;0.50;;;-1.00;99.90;;;;;;4974904;28;20495;-70
2021/11/25 00:38:43;;;;;;;0.40;0.40;;;-1.10;99.90;;;;;;4974247;28;20392;-71
2021/11/25 00:41:08;;;;;;;0.40;0.20;;;-1.10;99.90;;;;;;4975208;28;20396;-70
2021/11/25 00:43:34;;;;;;;0.40;0.40;;;-1.10;99.90;;;;;;4975152;28;20481;-70
2021/11/25 00:46:00;;;;;;;1.90;0.50;;;-1.10;99.90;;;;;;4973721;28;20506;-70
2021/11/25 00:48:25;;;;;;;0.70;0.50;;;-1.20;99.90;;;;;;4974956;28;20415;-70
2021/11/25 00:50:51;;;;;;;0.40;0.20;;;-1.20;99.90;;;;;;4973872;28;20408;-70
2021/11/25 00:53:17;;;;;;;1.10;0.85;;;-1.10;99.90;;;;;;4974325;28;20407;-70
2021/11/25 00:55:43;;;;;;;0.40;0.20;;;-1.20;99.90;;;;;;4974857;28;20495;-70
2021/11/25 00:58:09;;;;;;;0.40;0.20;;;-1.20;99.90;;;;;;4981217;28;20395;-70
2021/11/25 01:00:35;;;;;;;0.40;0.20;;;-1.40;99.90;;;;;;4994172;28;20398;-70
2021/11/25 01:03:00;;;;;;;0.40;0.30;;;-1.20;99.90;;;;;;4992684;28;20391;-70
2021/11/25 01:05:27;;;;;;;0.40;0.20;;;-1.30;99.90;;;;;;4994138;28;20401;-70
2021/11/25 01:07:52;;;;;;;0.40;0.20;;;-1.30;99.90;;;;;;4993933;28;20845;-70
2021/11/25 01:10:23;;;;;;;0.40;0.20;;;-1.40;99.90;;;;;;4993112;28;20482;-70
2021/11/25 01:12:51;;;;;;;0.40;0.20;;;-1.40;99.90;;;;;;4993189;28;20384;-70
2021/11/25 01:15:19;;;;;;;0.40;0.20;;;-1.30;99.90;;;;;;4993171;28;20394;-70
2021/11/25 01:17:45;;;;;;;0.40;0.20;;;-1.40;99.90;;;;;;4994054;28;20386;-70
2021/11/25 01:20:16;;;;;;;0.40;0.20;;;-1.50;99.90;;;;;;4992860;28;20485;-70
2021/11/25 01:22:43;;;;;;;0.40;0.20;;;-1.50;99.90;;;;;;4976405;28;20875;-70
2021/11/25 01:25:09;;;;;;;0.40;0.20;;;-1.40;99.90;;;;;;4992810;28;20383;-71
2021/11/25 01:27:35;;;;;;;0.40;0.20;;;-1.40;99.90;;;;;;4993712;28;20410;-70
2021/11/25 01:30:01;;;;;;;0.40;0.20;;;-1.40;99.90;;;;;;4993187;28;20399;-70
2021/11/25 01:32:27;;;;;;;0.40;0.20;;;-1.40;99.90;;;;;;4992754;28;21120;-70
2021/11/25 01:34:52;;;;;;;0.40;0.20;;;-1.40;99.90;;;;;;4993563;28;20402;-70
2021/11/25 01:37:21;;;;;;;0.90;0.70;;;-1.40;99.90;;;;;;4992662;28;20417;-70
2021/11/25 01:39:46;;;;;;;0.50;0.50;;;-1.40;99.90;;;;;;4993437;28;20378;-70
2021/11/25 01:42:12;;;;;;;0.40;0.30;;;-1.50;99.90;;;;;;4993525;28;20382;-70
2021/11/25 01:44:37;;;;;;;0.40;0.20;;;-1.40;99.90;;;;;;4992789;28;20418;-70
2021/11/25 01:47:04;;;;;;;0.40;0.20;;;-1.40;99.90;;;;;;4993100;28;20421;-70
2021/11/25 01:49:30;;;;;;;0.40;0.20;;;-1.40;99.90;;;;;;4999454;28;20404;-70
2021/11/25 01:51:57;;;;;;;0.40;0.20;;;-1.30;99.90;;;;;;5012765;28;20762;-70
2021/11/25 01:54:24;;;;;;;0.40;0.20;;;-1.40;99.90;;;;;;5012137;28;20396;-71
2021/11/25 01:56:50;;;;;;;0.40;0.20;;;-1.30;99.90;;;;;;5012751;28;20443;-70
2021/11/25 01:59:16;;;;;;;0.40;0.20;;;-1.30;99.90;;;;;;4995751;28;20402;-70
2021/11/25 02:01:43;;;;;;;0.40;0.20;;;-1.30;99.90;;;;;;4992175;28;20391;-70
2021/11/25 02:04:09;;;;;;;0.40;0.40;;;-1.20;99.90;;;;;;4993128;28;20747;-70
2021/11/25 02:06:35;;;;;;;1.10;0.90;;;-1.10;99.90;;;;;;4991372;28;20418;-70
2021/11/25 02:09:04;;;;;;;0.40;0.20;;;-1.20;99.90;;;;;;4991206;28;20409;-70
2021/11/25 02:11:30;;;;;;;0.40;0.20;;;-1.10;99.90;;;;;;4992951;28;20886;-70
2021/11/25 02:13:55;;;;;;;0.40;0.30;;;-1.10;99.90;;;;;;4992378;28;20394;-70
2021/11/25 02:16:21;;;;;;;0.40;0.20;;;-1.10;99.90;;;;;;4992873;28;20402;-70
2021/11/25 02:18:47;;;;;;;0.40;0.20;;;-1.00;99.90;;;;;;4991978;28;20413;-70
2021/11/25 02:21:13;;;;;;;0.40;0.20;;;-1.00;99.90;;;;;;4993239;28;20398;-70
2021/11/25 02:23:39;;;;;;;0.40;0.20;;;-1.10;99.90;;;;;;4992266;28;20391;-71
2021/11/25 02:26:05;;;;;;;0.40;0.20;;;-1.00;99.90;;;;;;4992575;28;20422;-70
2021/11/25 02:28:35;;;;;;;0.40;0.20;;;-1.10;99.90;;;;;;4992609;28;20387;-70
2021/11/25 02:31:00;;;;;;;0.40;0.20;;;-1.10;99.90;;;;;;4992000;28;20378;-70
2021/11/25 02:33:26;;;;;;;0.40;0.20;;;-1.10;99.90;;;;;;4974567;28;20395;-70
2021/11/25 02:35:52;;;;;;;0.40;0.20;;;-1.20;99.90;;;;;;4991830;28;20427;-70
2021/11/25 02:38:19;;;;;;;0.40;0.20;;;-1.40;99.90;;;;;;4992364;28;20843;-70
2021/11/25 02:40:48;;;;;;;0.40;0.20;;;-1.40;99.90;;;;;;4992061;28;20386;-70
2021/11/25 02:43:19;;;;;;;0.40;0.20;;;-1.30;99.90;;;;;;4991859;28;20387;-70
2021/11/25 02:45:54;;;;;;;2.40;0.80;;;-1.40;99.90;;;;;;4992413;28;20437;-70
2021/11/25 02:48:23;;;;;;;0.40;0.20;;;-1.40;99.90;;;;;;4987586;28;20386;-70
2021/11/25 02:50:51;;;;;;;0.40;0.20;;;-1.30;99.90;;;;;;4992724;28;20429;-70
2021/11/25 02:53:29;;;;;;;0.40;0.20;;;-1.30;99.90;;;;;;4991533;28;20417;-70
2021/11/25 02:55:57;;;;;;;1.65;1.17;;;-1.40;99.90;;;;;;4992447;28;20402;-70
2021/11/25 02:58:23;;;;;;;0.40;0.20;;;-1.40;99.90;;;;;;5000572;28;20897;-70
2021/11/25 03:00:50;;;;;;;0.40;0.30;;;-1.40;99.90;;;;;;4994401;28;20381;-70
2021/11/25 03:03:17;;;;;;;0.40;0.20;;;-1.50;99.90;;;;;;5010916;28;20424;-70
2021/11/25 03:05:45;;;;;;;0.40;0.20;;;-1.50;99.90;;;;;;5011420;28;20385;-70
2021/11/25 03:08:12;;;;;;;0.40;0.30;;;-1.50;99.90;;;;;;4993268;28;20389;-70
2021/11/25 03:10:41;;;;;;;0.40;0.20;;;-1.50;99.90;;;;;;5011603;28;20381;-70
2021/11/25 03:13:08;;;;;;;0.40;0.20;;;-1.50;99.90;;;;;;5011596;28;20399;-71
2021/11/25 03:15:36;;;;;;;0.40;0.20;;;-1.50;99.90;;;;;;5011134;28;20476;-70
2021/11/25 03:18:03;;;;;;;0.40;0.20;;;-1.60;99.90;;;;;;5011296;28;20415;-70
2021/11/25 03:20:29;;;;;;;0.40;0.20;;;-1.60;99.90;;;;;;5010293;28;20396;-70
2021/11/25 03:22:54;;;;;;;0.40;0.20;;;-1.60;99.90;;;;;;5010845;28;20818;-70
2021/11/25 03:25:20;;;;;;;0.40;0.20;;;-1.70;99.90;;;;;;4992913;28;20396;-70
2021/11/25 03:27:46;;;;;;;0.40;0.20;;;-1.60;99.90;;;;;;5011316;28;20427;-70
2021/11/25 03:30:12;;;;;;;0.40;0.30;;;-1.60;99.90;;;;;;5010962;28;20866;-70
2021/11/25 03:32:38;;;;;;;0.40;0.20;;;-1.60;99.90;;;;;;5010110;28;20456;-70
2021/11/25 03:35:04;;;;;;;0.40;0.20;;;-1.50;99.90;;;;;;4993365;28;20408;-70
2021/11/25 03:37:30;;;;;;;0.40;0.20;;;-1.50;99.90;;;;;;5010323;28;20388;-70
2021/11/25 03:39:55;;;;;;;0.40;0.20;;;-1.60;99.90;;;;;;5010621;28;20381;-70
2021/11/25 03:42:21;;;;;;;0.40;0.20;;;-1.60;99.90;;;;;;5011159;28;20508;-70
2021/11/25 03:44:47;;;;;;;0.40;0.20;;;-1.60;99.90;;;;;;5009749;28;21021;-70
2021/11/25 03:47:13;;;;;;;0.40;0.20;;;-1.60;99.90;;;;;;5011049;28;20416;-70
2021/11/25 03:49:40;;;;;;;0.40;0.20;;;-1.80;99.90;;;;;;4992161;28;20412;-69
2021/11/25 03:52:06;;;;;;;0.40;0.20;;;-1.70;99.90;;;;;;5010912;28;20542;-69
2021/11/25 03:54:32;;;;;;;0.40;0.38;;;-1.60;99.90;;;;;;5010678;28;20476;-69
2021/11/25 03:56:58;;;;;;;0.40;0.20;;;-1.60;99.90;;;;;;4992560;28;20532;-68
2021/11/25 03:59:23;;;;;;;0.60;0.60;;;-1.60;99.90;;;;;;4992811;28;20399;-69
2021/11/25 04:01:49;;;;;;;0.40;0.20;;;-1.60;99.90;;;;;;4972783;28;20391;-69
2021/11/25 04:04:15;;;;;;;0.40;0.20;;;-1.60;99.90;;;;;;4991395;28;20391;-69
2021/11/25 04:06:41;;;;;;;0.40;0.20;;;-1.60;99.90;;;;;;4972299;28;20424;-71
2021/11/25 04:09:07;;;;;;;0.40;0.30;;;-1.60;99.90;;;;;;4988176;28;20864;-69
2021/11/25 04:11:32;;;;;;;0.40;0.20;;;-1.70;99.90;;;;;;4982597;28;20391;-69
2021/11/25 04:14:02;;;;;;;0.40;0.20;;;-1.60;99.90;;;;;;4990286;28;20397;-69
2021/11/25 04:16:28;;;;;;;0.40;0.20;;;-1.60;99.90;;;;;;4990851;28;20818;-69
2021/11/25 04:18:54;;;;;;;0.40;0.20;;;-1.60;99.90;;;;;;5008807;28;20407;-69
2021/11/25 04:21:19;;;;;;;0.40;0.20;;;-1.60;99.90;;;;;;5011002;28;20404;-69
2021/11/25 04:23:45;;;;;;;0.40;0.20;;;-1.60;99.90;;;;;;5010727;28;20566;-69
2021/11/25 04:26:11;;;;;;;0.50;0.30;;;-1.40;99.90;;;;;;5009905;28;20420;-69
2021/11/25 04:28:37;;;;;;;0.40;0.20;;;-1.50;99.90;;;;;;5010200;28;20750;-69
2021/11/25 04:36:32;;;;;;;0.40;0.20;;;-1.50;99.90;;;;;;5010746;28;20440;-70
2021/11/25 04:38:58;;;;;;;2.00;0.90;;;-1.40;99.90;;;;;;5010697;28;20384;-69
2021/11/25 04:41:24;;;;;;;0.40;0.30;;;-1.30;99.90;;;;;;5010100;28;20730;-69
2021/11/25 04:43:50;;;;;;;0.40;0.40;;;-1.30;99.90;;;;;;5010411;28;20456;-69
2021/11/25 04:46:16;;;;;;;0.40;0.20;;;-1.40;99.90;;;;;;5009499;28;20431;-70
2021/11/25 04:48:41;;;;;;;0.40;0.20;;;-1.40;99.90;;;;;;5012635;28;20393;-71
2021/11/25 04:51:07;;;;;;;0.40;0.20;;;-1.50;99.90;;;;;;5013715;28;20417;-69
2021/11/25 04:53:33;;;;;;;0.40;0.20;;;-1.40;99.90;;;;;;5013568;28;20466;-69
2021/11/25 04:55:59;;;;;;;0.40;0.20;;;-1.30;99.90;;;;;;5014151;28;20391;-69
2021/11/25 04:58:25;;;;;;;0.40;0.20;;;-1.30;99.90;;;;;;4969643;28;20399;-70
2021/11/25 05:00:51;;;;;;;0.40;0.20;;;-1.30;99.90;;;;;;4976965;28;20394;-69
2021/11/25 05:03:17;;;;;;;0.40;0.20;;;-1.40;99.90;;;;;;4994524;28;20393;-69
2021/11/25 05:05:44;;;;;;;0.90;0.80;;;-1.50;99.90;;;;;;4993304;28;20397;-69
2021/11/25 05:08:10;;;;;;;0.60;0.40;;;-1.40;99.90;;;;;;4994364;28;20416;-69
2021/11/25 05:10:36;;;;;;;0.40;0.20;;;-1.50;99.90;;;;;;4993860;28;20383;-69
2021/11/25 05:13:02;;;;;;;0.40;0.30;;;-1.50;99.90;;;;;;4994111;28;20402;-69
2021/11/25 05:15:28;;;;;;;0.40;0.20;;;-1.40;99.90;;;;;;4994067;28;20379;-69
2021/11/25 05:17:54;;;;;;;0.40;0.20;;;-1.40;99.90;;;;;;4993173;28;20590;-69
2021/11/25 05:20:20;;;;;;;0.40;0.20;;;-1.40;99.90;;;;;;4994079;28;20410;-70
2021/11/25 05:22:46;;;;;;;0.50;0.50;;;-1.40;99.90;;;;;;4992831;28;20791;-70
2021/11/25 05:25:14;;;;;;;0.40;0.30;;;-1.50;99.90;;;;;;4993803;28;20466;-70
2021/11/25 05:27:40;;;;;;;0.43;0.25;;;-1.70;99.90;;;;;;4993474;28;20441;-71
2021/11/25 05:30:09;;;;;;;0.40;0.20;;;-1.70;99.90;;;;;;4993974;28;20411;-70
2021/11/25 05:32:35;;;;;;;0.40;0.20;;;-1.60;99.90;;;;;;4993964;28;20386;-70
2021/11/25 05:35:01;;;;;;;0.40;0.20;;;-1.60;99.90;;;;;;4993229;28;20383;-70
2021/11/25 05:37:26;;;;;;;0.40;0.20;;;-1.60;99.90;;;;;;4993800;28;20391;-70
2021/11/25 05:39:52;;;;;;;0.40;0.20;;;-1.50;99.90;;;;;;4992825;28;20397;-70
2021/11/25 05:42:19;;;;;;;0.40;0.20;;;-1.60;99.90;;;;;;4993772;28;20398;-70
2021/11/25 05:44:46;;;;;;;0.40;0.20;;;-1.70;99.90;;;;;;4993711;28;20803;-70
2021/11/25 05:47:12;;;;;;;0.40;0.30;;;-1.70;99.90;;;;;;4975374;28;20565;-70
2021/11/25 05:49:37;;;;;;;0.40;0.20;;;-1.70;99.90;;;;;;4985138;28;20412;-70
2021/11/25 05:52:04;;;;;;;0.40;0.20;;;-1.70;99.90;;;;;;4973394;28;20388;-70
2021/11/25 05:54:29;;;;;;;0.40;0.20;;;-1.70;99.90;;;;;;4973501;28;20498;-70
2021/11/25 05:56:55;;;;;;;0.40;0.20;;;-1.60;99.90;;;;;;4973768;28;20540;-70
2021/11/25 05:59:21;;;;;;;0.40;0.20;;;-1.70;99.90;;;;;;4989725;28;20386;-70
2021/11/25 06:01:46;;;;;;;1.00;0.80;;;-1.70;99.90;;;;;;4977184;28;20408;-70
2021/11/25 06:04:12;;;;;;;0.40;0.20;;;-1.70;99.90;;;;;;4981216;28;20389;-70
2021/11/25 06:06:38;;;;;;;0.40;0.20;;;-1.80;99.90;;;;;;4980543;28;20514;-70
2021/11/25 06:09:04;;;;;;;0.43;0.23;;;-1.70;99.90;;;;;;4968376;28;20605;-70
2021/11/25 06:11:30;;;;;;;0.40;0.20;;;-1.70;99.90;;;;;;4986407;28;20581;-70
2021/11/25 06:13:56;;;;;;;0.40;0.22;;;-1.70;99.90;;;;;;4979323;28;20467;-70
2021/11/25 06:16:21;;;;;;;0.40;0.20;;;-1.70;99.90;;;;;;4972336;28;20416;-70
2021/11/25 06:18:47;;;;;;;0.40;0.20;;;-1.60;99.90;;;;;;4986496;28;20386;-70
2021/11/25 06:21:13;;;;;;;0.40;0.30;;;-1.60;99.90;;;;;;4976680;28;20726;-71
2021/11/25 06:23:40;;;;;;;0.40;0.20;;;-1.60;99.90;;;;;;4988139;28;20671;-70
2021/11/25 06:26:07;;;;;;;0.40;0.20;;;-1.80;99.90;;;;;;4980969;28;20404;-70
2021/11/25 06:28:32;;;;;;;0.40;0.40;;;-1.70;99.90;;;;;;4973540;28;20408;-70
2021/11/25 06:30:58;;;;;;;0.40;0.20;;;-1.80;99.90;;;;;;4972453;28;20453;-70
2021/11/25 06:33:24;;;;;;;0.50;0.50;;;-1.80;99.90;;;;;;4952804;29;20397;-71
2021/11/25 06:35:51;;;;;;;0.40;0.20;;;-1.70;99.90;;;;;;4953807;29;20389;-70
2021/11/25 06:38:19;;;;;;;1.10;1.10;;;-1.70;99.90;;;;;;4954299;29;20481;-70
2021/11/25 06:40:46;;;;;;;0.40;0.20;;;-1.60;99.90;;;;;;4953376;29;20485;-70
2021/11/25 06:43:12;;;;;;;0.40;0.20;;;-1.60;99.90;;;;;;4954227;29;20394;-70
2021/11/25 06:45:40;;;;;;;0.40;0.20;;;-1.60;99.90;;;;;;4953712;29;20386;-70
2021/11/25 06:48:06;;;;;;;0.40;0.20;;;-1.70;99.90;;;;;;4954158;29;20418;-70
2021/11/25 06:50:32;;;;;;;0.40;0.20;;;-1.70;99.90;;;;;;4968462;28;20431;-71
2021/11/25 06:52:57;;;;;;;0.40;0.40;;;-1.70;99.90;;;;;;4973241;28;20738;-70
2021/11/25 06:55:24;;;;;;;0.40;0.40;;;-1.70;99.90;;;;;;4973175;28;20384;-70
2021/11/25 06:57:51;;;;;;;0.40;0.30;;;-1.80;99.90;;;;;;4965049;28;20388;-70
2021/11/25 07:00:20;;;;;;;0.40;0.20;;;-1.70;99.90;;;;;;5012288;28;20389;-70
2021/11/25 07:02:46;;;;;;;0.40;0.30;;;-1.60;99.90;;;;;;5011611;28;20488;-70
2021/11/25 07:05:12;;;;;;;0.40;0.30;;;-1.60;99.90;;;;;;5012621;28;20392;-69
2021/11/25 07:07:38;;;;;;;0.40;0.30;;;-1.60;99.90;;;;;;5012222;28;20790;-70
2021/11/25 07:10:07;;;;;;;0.40;0.20;;;-1.50;99.90;;;;;;5010575;28;20397;-70
2021/11/25 07:12:34;;;;;;;0.60;0.60;;;-1.60;99.90;;;;;;5011752;28;20381;-70
2021/11/25 07:15:00;;;;;;;0.50;0.50;;;-1.50;99.90;;;;;;5011173;28;20396;-70
2021/11/25 07:17:25;;;;;;;0.40;0.20;;;-1.60;99.90;;;;;;5011881;28;20389;-70
2021/11/25 07:19:51;;;;;;;0.40;0.20;;;-1.70;99.90;;;;;;5011272;28;20393;-70
2021/11/25 07:22:17;;;;;;;0.40;0.40;;;-1.70;99.90;;;;;;5011561;28;20432;-70
2021/11/25 07:24:43;;;;;;;0.40;0.20;;;-1.50;99.90;;;;;;5011806;28;20429;-70
2021/11/25 07:27:09;;;;;;;0.40;0.20;;;-1.50;99.90;;;;;;5010952;28;20421;-70
2021/11/25 07:29:36;;;;;;;0.43;0.28;;;-1.40;99.90;;;;;;4994016;28;20424;-70
2021/11/25 07:32:02;;;;;;;0.40;0.20;;;-1.40;99.90;;;;;;5010692;28;20866;-70
2021/11/25 07:34:28;;;;;;;0.40;0.20;;;-1.20;99.90;;;;;;5011877;28;20384;-70
2021/11/25 07:36:54;;;;;;;0.40;0.20;;;-1.20;99.90;;;;;;5011642;28;20380;-70
2021/11/25 07:39:20;;;;;;;0.40;0.30;;;-1.10;99.90;;;;;;5011079;28;20389;-70
2021/11/25 07:41:45;;;;;;;0.40;0.20;;;-1.30;99.90;;;;;;5011579;28;20388;-70
2021/11/25 07:44:11;;;;;;;0.40;0.20;;;-1.40;99.90;;;;;;5011028;28;20389;-70
2021/11/25 07:46:37;;;;;;;0.40;0.20;;;-1.30;99.90;;;;;;5011742;28;20475;-70
2021/11/25 07:49:03;;;;;;;0.40;0.37;;;-1.30;99.90;;;;;;5011127;28;20898;-70
2021/11/25 07:51:31;;;;;;;0.60;0.50;;;-1.20;99.90;;;;;;5011252;28;20421;-70
2021/11/25 07:53:57;;;;;;;0.40;0.20;;;-1.20;99.90;;;;;;5011228;28;20393;-69
2021/11/25 07:56:24;;;;;;;0.43;0.35;;;-1.30;99.90;;;;;;5010805;28;20737;-69
2021/11/25 07:58:50;;;;;;;0.40;0.20;;;-1.30;99.90;;;;;;4997854;28;20967;-69
2021/11/25 08:01:16;;;;;;;0.40;0.20;;;-1.20;99.90;;;;;;4973735;28;20807;-70
2021/11/25 08:03:41;;;;;;;0.40;0.20;;;-1.10;99.90;;;;;;4991907;28;20379;-69
2021/11/25 08:06:07;;;;;;;0.40;0.30;;;-1.10;99.90;;;;;;4991393;28;20489;-69
2021/11/25 08:08:33;;;;;;;0.40;0.20;;;-1.10;99.90;;;;;;4973692;28;20473;-70
2021/11/25 08:11:02;;;;;;;0.40;0.20;;;-1.00;99.90;;;;;;4991633;28;20470;-69
2021/11/25 08:13:30;;;;;;;0.40;0.20;;;-0.80;99.90;;;;;;4974139;28;20399;-70
2021/11/25 08:15:56;;;;;;;0.40;0.20;;;-0.70;99.90;;;;;;4991421;28;20908;-69
2021/11/25 08:18:22;;;;;;;0.40;0.20;;;-0.70;99.90;;;;;;4990929;28;20411;-69
2021/11/25 08:20:48;;;;;;;0.40;0.20;;;-0.60;99.90;;;;;;4991227;28;20854;-69
2021/11/25 08:23:14;;;;;;;0.40;0.20;;;-0.60;99.90;;;;;;4995049;28;20386;-69
2021/11/25 08:25:40;;;;;;;0.60;0.60;;;-0.50;99.90;;;;;;4994903;28;20739;-68
2021/11/25 08:28:07;;;;;;;0.40;0.20;;;-0.60;99.90;;;;;;4995084;28;20418;-69
2021/11/25 08:30:32;;;;;;;0.40;0.20;;;-0.40;99.90;;;;;;4994723;28;20422;-69
2021/11/25 08:32:58;;;;;;;1.30;1.30;;;-0.10;99.90;;;;;;4994921;28;20390;-69
2021/11/25 08:35:26;;;;;;;0.40;0.30;;;-0.10;99.90;;;;;;4995515;28;20391;-69
2021/11/25 08:37:52;;;;;;;0.40;0.20;;;-0.20;99.90;;;;;;4994598;28;20437;-69
2021/11/25 08:40:19;;;;;;;0.40;0.38;;;-0.30;99.90;;;;;;4995269;28;20390;-69
2021/11/25 08:42:47;;;;;;;0.50;0.50;;;-0.30;99.90;;;;;;4994439;28;20418;-70
2021/11/25 08:45:15;;;;;;;1.30;0.90;;;-0.30;99.90;;;;;;4995074;28;20391;-69
2021/11/25 08:47:41;;;;;;;0.40;0.30;;;-0.30;99.90;;;;;;4994519;28;20426;-70
2021/11/25 08:50:09;;;;;;;0.70;0.70;;;-0.40;99.90;;;;;;4994585;28;20436;-69
2021/11/25 08:52:35;;;;;;;0.40;0.20;;;-0.40;99.90;;;;;;4994973;28;20390;-69
2021/11/25 08:55:01;;;;;;;0.90;0.60;;;-0.30;99.90;;;;;;4994368;28;20923;-69
2021/11/25 08:57:27;;;;;;;0.40;0.30;;;-0.20;99.90;;;;;;4996727;28;20386;-69
2021/11/25 08:59:53;;;;;;;0.40;0.30;;;0.00;99.90;;;;;;5013825;28;20553;-69
2021/11/25 09:02:22;;;;;;;0.43;0.32;;;0.10;99.90;;;;;;5013369;28;20691;-69
2021/11/25 09:04:47;;;;;;;0.40;0.20;;;0.10;99.90;;;;;;5013861;28;20385;-69
2021/11/25 09:07:13;;;;;;;0.40;0.20;;;0.10;99.90;;;;;;5013683;28;20408;-69
2021/11/25 09:09:39;;;;;;;0.40;0.40;;;0.00;99.90;;;;;;5014092;28;20393;-69
2021/11/25 09:12:06;;;;;;;0.40;0.20;;;0.10;99.90;;;;;;5013604;28;20916;-69
2021/11/25 09:14:32;;;;;;;0.40;0.20;;;0.10;99.90;;;;;;5014226;28;20439;-70
2021/11/25 09:16:58;;;;;;;1.40;1.33;;;-0.10;99.90;;;;;;5013566;28;20385;-71
2021/11/25 09:19:23;;;;;;;0.40;0.30;;;-0.10;99.90;;;;;;5014078;28;20424;-70
2021/11/25 09:21:49;;;;;;;0.40;0.20;;;0.00;99.90;;;;;;5014156;28;20385;-69
2021/11/25 09:24:17;;;;;;;0.40;0.20;;;0.10;99.90;;;;;;5013372;28;20401;-70
2021/11/25 09:26:43;;;;;;;0.40;0.20;;;0.10;99.90;;;;;;5013894;28;20416;-70
2021/11/25 09:29:09;;;;;;;0.40;0.20;;;0.20;99.90;;;;;;5013213;28;20396;-70
2021/11/25 09:31:36;;;;;;;0.40;0.30;;;0.20;99.90;;;;;;5013812;28;20742;-69
2021/11/25 09:34:03;;;;;;;0.70;0.70;;;0.30;99.90;;;;;;5013059;28;20389;-69
2021/11/25 09:36:30;;;;;;;0.40;0.20;;;0.40;99.90;;;;;;5013191;28;20396;-70
2021/11/25 09:38:58;;;;;;;0.40;0.40;;;0.50;99.90;;;;;;4996238;28;20388;-69
2021/11/25 09:41:24;;;;;;;0.40;0.20;;;0.40;99.90;;;;;;5012807;28;20399;-70
2021/11/25 09:43:52;;;;;;;0.57;0.57;;;0.60;99.90;;;;;;5013547;28;20385;-69
2021/11/25 09:46:19;;;;;;;0.40;0.20;;;0.70;99.90;;;;;;5013046;28;20381;-70
2021/11/25 09:48:47;;;;;;;0.50;0.50;;;0.70;99.90;;;;;;5012064;28;20734;-70
2021/11/25 09:51:14;;;;;;;0.40;0.20;;;0.70;99.90;;;;;;4993819;28;20450;-69
2021/11/25 09:53:40;;;;;;;0.40;0.20;;;0.70;99.90;;;;;;4993232;28;21090;-69
2021/11/25 09:56:07;;;;;;;0.40;0.20;;;0.90;99.90;;;;;;4993954;28;20446;-69
2021/11/25 09:58:36;;;;;;;0.40;0.20;;;0.70;99.90;;;;;;4982320;28;20393;-69
2021/11/25 10:01:05;;;;;;;0.70;0.70;;;0.90;99.90;;;;;;4974262;28;20377;-69
2021/11/25 10:03:34;;;;;;;0.40;0.40;;;0.80;99.90;;;;;;4973582;28;20456;-69
2021/11/25 10:06:00;;;;;;;0.70;0.40;;;0.80;99.90;;;;;;4974036;28;20435;-69
2021/11/25 10:08:28;;;;;;;1.30;0.98;;;0.90;99.90;;;;;;4974157;28;20396;-69
2021/11/25 10:11:09;;;;;;;0.40;0.30;;;0.90;99.90;;;;;;4974034;28;20456;-69
2021/11/25 10:13:41;;;;;;;1.40;0.50;;;1.00;99.90;;;;;;4973178;28;20824;-70
2021/11/25 10:16:13;;;;;;;0.40;0.20;;;0.90;99.90;;;;;;4974010;28;20440;-70
2021/11/25 10:18:40;;;;;;;0.40;0.22;;;0.90;99.90;;;;;;4973390;28;20396;-69
2021/11/25 10:21:08;;;;;;;0.40;0.20;;;0.90;99.90;;;;;;4973628;28;20460;-69
2021/11/25 10:23:35;;;;;;;0.40;0.20;;;1.00;99.90;;;;;;4973830;28;20401;-69
2021/11/25 10:26:06;;;;;;;0.40;0.20;;;1.00;99.90;;;;;;4973353;28;20388;-70
2021/11/25 10:28:40;;;;;;;0.40;0.20;;;1.10;99.90;;;;;;4973774;28;20435;-69
2021/11/25 10:31:14;;;;;;;0.40;0.20;;;1.00;99.90;;;;;;4973506;28;20385;-69
2021/11/25 10:33:52;;;;;;;1.30;1.00;;;0.90;99.90;;;;;;4973759;28;20384;-69
2021/11/25 10:37:03;;;;;;;0.40;0.30;;;0.70;99.90;;;;;;4973807;28;20384;-70
2021/11/25 10:39:36;;;;;;;0.40;0.20;;;0.70;99.90;;;;;;4973654;28;20416;-69
2021/11/25 10:42:07;;;;;;;0.50;0.50;;;0.80;99.90;;;;;;4973069;28;20392;-70
2021/11/25 10:44:44;;;;;;;0.70;0.60;;;0.80;99.90;;;;;;4972764;28;20384;-69
2021/11/25 10:47:19;;;;;;;0.40;0.40;;;0.80;99.90;;;;;;4972774;28;20412;-69
2021/11/25 10:49:54;;;;;;;1.00;0.73;;;1.00;99.90;;;;;;4982408;28;20403;-69
2021/11/25 10:52:43;;;;;;;1.10;1.00;;;0.80;99.90;;;;;;4993041;28;20489;-69
2021/11/25 10:55:19;;;;;;;0.90;0.80;;;0.90;99.90;;;;;;4974561;28;20409;-69
2021/11/25 10:57:52;;;;;;;0.40;0.20;;;0.90;99.90;;;;;;4992655;28;20395;-69
2021/11/25 11:00:28;;;;;;;0.60;0.60;;;1.00;99.90;;;;;;4992061;28;20406;-69
2021/11/25 11:03:07;;;;;;;0.40;0.40;;;0.90;99.90;;;;;;4992384;28;20863;-69
2021/11/25 11:05:57;;;;;;;0.50;0.50;;;1.20;99.90;;;;;;4992585;28;20441;-69
2021/11/25 11:08:45;;;;;;;0.40;0.20;;;1.30;99.90;;;;;;4991750;28;20414;-69
2021/11/25 11:11:12;;;;;;;0.40;0.20;;;1.30;99.90;;;;;;4991880;28;20382;-69
2021/11/25 11:13:47;;;;;;;0.40;0.20;;;1.30;99.90;;;;;;4992174;28;20954;-69
2021/11/25 11:18:57;;;;;;;0.40;0.30;;;1.20;99.90;;;;;;4992370;28;20491;-69
2021/11/25 11:21:34;;;;;;;0.40;0.20;;;1.30;99.90;;;;;;4991672;28;20465;-69
2021/11/25 11:24:05;;;;;;;0.47;0.32;;;1.30;99.90;;;;;;4992304;28;20387;-69
2021/11/25 11:26:32;;;;;;;0.40;0.20;;;1.20;99.90;;;;;;4991440;28;20550;-69
2021/11/25 11:28:58;;;;;;;0.70;0.70;;;1.30;99.90;;;;;;4992258;28;20383;-69
2021/11/25 11:31:23;;;;;;;1.30;0.80;;;1.30;99.90;;;;;;4973579;28;20403;-69
2021/11/25 11:33:50;;;;;;;0.70;0.60;;;1.40;99.90;;;;;;4992458;28;20393;-69
2021/11/25 11:36:16;;;;;;;0.40;0.20;;;1.30;99.90;;;;;;4991984;28;20395;-69
2021/11/25 11:38:44;;;;;;;1.10;1.00;;;1.40;99.90;;;;;;4991405;28;20399;-69
2021/11/25 11:41:10;;;;;;;0.40;0.40;;;1.40;99.90;;;;;;4991874;28;20428;-69
2021/11/25 11:43:36;;;;;;;0.90;0.90;;;1.60;99.90;;;;;;4991396;28;20418;-69
2021/11/25 11:46:02;;;;;;;0.40;0.20;;;1.70;99.90;;;;;;4992163;28;20437;-69
2021/11/25 11:48:31;;;;;;;1.70;1.60;;;1.40;99.90;;;;;;4991821;28;20422;-69
2021/11/25 11:50:58;;;;;;;0.40;0.20;;;1.60;99.90;;;;;;4991260;28;20938;-69
2021/11/25 11:53:27;;;;;;;0.57;0.57;;;1.70;99.90;;;;;;4991496;28;20965;-69
2021/11/25 11:56:02;;;;;;;0.40;0.20;;;1.70;99.90;;;;;;4990785;28;20405;-69
2021/11/25 11:58:28;;;;;;;0.50;0.40;;;1.60;99.90;;;;;;4991835;28;20490;-69
2021/11/25 12:01:06;;;;;;;0.40;0.20;;;1.70;99.90;;;;;;4990882;28;20482;-70
2021/11/25 12:03:42;;;;;;;0.57;0.57;;;1.70;99.90;;;;;;4991428;28;20431;-69
2021/11/25 12:06:08;;;;;;;0.40;0.40;;;1.50;99.90;;;;;;4975733;28;20956;-69
2021/11/25 12:08:35;;;;;;;0.40;0.30;;;1.80;99.90;;;;;;4986284;28;20387;-69
2021/11/25 12:11:06;;;;;;;0.40;0.20;;;1.50;99.90;;;;;;4973390;28;20438;-70
2021/11/25 12:13:40;;;;;;;1.10;0.80;;;1.50;99.90;;;;;;4971798;28;20452;-70
2021/11/25 12:16:21;;;;;;;0.40;0.30;;;1.50;99.90;;;;;;4980805;28;20422;-70
2021/11/25 12:18:52;;;;;;;0.40;0.40;;;1.70;99.90;;;;;;4975421;28;20430;-70
2021/11/25 12:21:42;;;;;;;0.40;0.20;;;1.30;99.90;;;;;;4959165;28;20452;-70
2021/11/25 12:24:12;;;;;;;0.40;0.32;;;1.60;99.90;;;;;;4972672;28;20877;-70
2021/11/25 12:26:57;;;;;;;0.40;0.40;;;1.70;99.90;;;;;;4959112;28;20465;-70
2021/11/25 12:30:04;;;;;;;0.40;0.30;;;1.50;99.90;;;;;;4960689;28;20430;-70
2021/11/25 12:35:20;;;;;;;0.40;0.20;;;1.60;99.90;;;;;;4986539;28;20398;-70
2021/11/25 12:37:50;;;;;;;0.90;0.50;;;1.80;99.90;;;;;;4978916;28;20803;-70
2021/11/25 12:40:21;;;;;;;0.70;0.70;;;1.70;99.90;;;;;;4978448;28;20404;-70
2021/11/25 12:42:53;;;;;;;1.30;0.90;;;1.70;99.90;;;;;;4986707;28;20398;-70
2021/11/25 12:45:32;;;;;;;0.40;0.20;;;1.40;99.90;;;;;;4958492;28;20918;-70
2021/11/25 12:48:11;;;;;;;0.40;0.20;;;1.70;99.90;;;;;;4981326;28;20415;-70
2021/11/25 12:50:50;;;;;;;0.40;0.30;;;1.70;99.90;;;;;;4985434;28;20418;-71
2021/11/25 12:53:34;;;;;;;0.40;0.32;;;1.60;99.90;;;;;;4973854;28;20436;-70
2021/11/25 12:56:05;;;;;;;1.80;0.60;;;1.70;99.90;;;;;;4981080;28;20804;-69
2021/11/25 12:58:34;;;;;;;0.40;0.20;;;1.50;99.90;;;;;;4983897;28;20387;-69
2021/11/25 13:01:01;;;;;;;0.40;0.20;;;1.50;99.90;;;;;;4972662;28;20388;-69
2021/11/25 13:03:27;;;;;;;1.50;0.90;;;1.60;99.90;;;;;;4984984;28;20398;-70
2021/11/25 13:05:53;;;;;;;0.40;0.40;;;1.70;99.90;;;;;;4962058;28;20895;-69